createdAt,value
2023-01-07T00:04:12.508Z,59.69
2023-01-07T00:09:15.533Z,59.40
2023-01-07T00:14:17.055Z,59.34
2023-01-07T00:19:18.561Z,59.67
2023-01-07T00:24:20.090Z,58.96
2023-01-07T00:29:21.604Z,59.45
2023-01-07T00:34:23.072Z,60.34
2023-01-07T00:39:24.601Z,60.75
2023-01-07T00:44:26.058Z,60.72
2023-01-07T00:49:27.745Z,60.52
2023-01-07T00:54:29.365Z,59.66
2023-01-07T00:59:30.871Z,60.29
2023-01-07T01:04:32.396Z,59.45
2023-01-07T01:09:33.984Z,59.71
2023-01-07T01:14:35.528Z,60.32
2023-01-07T01:19:37.081Z,60.47
2023-01-07T01:24:38.610Z,59.25
2023-01-07T01:29:40.159Z,60.13
2023-01-07T01:34:42.378Z,60.74
2023-01-07T01:39:45.142Z,61.01
2023-01-07T01:44:56.036Z,61.32
2023-01-07T01:50:18.128Z,61.38
2023-01-07T01:55:23.998Z,61.06
2023-01-07T02:00:26.953Z,60.73
2023-01-07T02:05:33.151Z,60.92
2023-01-07T02:10:34.866Z,61.03
2023-01-07T02:15:55.753Z,61.10
2023-01-07T02:21:13.858Z,61.21
2023-01-07T02:26:40.289Z,61.05
2023-01-07T02:32:13.515Z,60.96
2023-01-07T02:37:44.525Z,61.09
2023-01-07T02:43:11.124Z,61.35
2023-01-07T02:48:15.609Z,61.48
2023-01-07T02:53:19.574Z,61.99
2023-01-07T02:58:29.767Z,62.27
2023-01-07T03:04:05.550Z,61.88
2023-01-07T03:09:12.795Z,62.40
2023-01-07T03:14:19.489Z,62.45
2023-01-07T03:19:31.993Z,62.20
2023-01-07T03:24:33.729Z,62.36
2023-01-07T03:29:35.468Z,61.15
2023-01-07T03:34:39.467Z,61.75
2023-01-07T03:39:43.218Z,61.86
2023-01-07T03:44:46.222Z,61.40
2023-01-07T03:49:48.667Z,61.00
2023-01-07T03:54:50.245Z,61.37
2023-01-07T03:59:52.197Z,61.79
2023-01-07T04:04:53.969Z,60.93
2023-01-07T04:09:56.502Z,61.08
2023-01-07T04:14:59.326Z,60.01
2023-01-07T04:20:01.534Z,59.53
2023-01-07T04:25:03.351Z,59.07
2023-01-07T04:30:06.682Z,59.54
2023-01-07T04:35:09.228Z,60.04
2023-01-07T04:40:11.192Z,59.65
2023-01-07T04:45:13.728Z,61.03
2023-01-07T04:50:16.183Z,60.23
2023-01-07T04:55:18.009Z,60.55
2023-01-07T05:00:21.488Z,60.43
2023-01-07T05:05:24.997Z,60.67
2023-01-07T05:10:27.483Z,61.65
2023-01-07T05:15:29.047Z,61.25
2023-01-07T05:20:31.046Z,59.80
2023-01-07T05:25:34.834Z,59.26
2023-01-07T05:30:36.515Z,59.04
2023-01-07T05:35:38.855Z,59.04
2023-01-07T05:40:42.695Z,58.97
2023-01-07T05:45:46.079Z,59.67
2023-01-07T05:50:47.753Z,59.00
2023-01-07T05:55:49.313Z,59.19
2023-01-07T06:00:51.008Z,58.41
2023-01-07T06:05:52.495Z,58.80
2023-01-07T06:10:54.654Z,58.57
2023-01-07T06:16:08.016Z,58.57
2023-01-07T06:21:09.630Z,58.48
2023-01-07T06:26:11.126Z,58.30
2023-01-07T06:31:12.769Z,58.05
2023-01-07T06:36:14.305Z,58.49
2023-01-07T06:41:15.757Z,58.42
2023-01-07T06:46:17.299Z,58.57
2023-01-07T06:51:18.848Z,59.07
2023-01-07T06:56:20.397Z,58.64
2023-01-07T07:01:22.078Z,59.49
2023-01-07T07:06:23.696Z,60.27
2023-01-07T07:11:25.199Z,59.53
2023-01-07T07:16:26.722Z,58.88
2023-01-07T07:21:28.274Z,58.20
2023-01-07T07:26:29.790Z,58.49
2023-01-07T07:31:31.395Z,58.32
2023-01-07T07:36:33.007Z,57.95
2023-01-07T07:41:34.455Z,57.90
2023-01-07T07:46:41.354Z,57.61
2023-01-07T07:51:43.599Z,57.60
2023-01-07T07:56:45.093Z,57.92
2023-01-07T08:01:46.751Z,58.15
2023-01-07T08:06:48.393Z,58.91
2023-01-07T08:11:49.923Z,59.21
2023-01-07T08:16:51.382Z,58.80
2023-01-07T08:21:52.814Z,58.56
2023-01-07T08:26:54.263Z,58.66
2023-01-07T08:31:55.718Z,59.68
2023-01-07T08:36:57.226Z,59.40
2023-01-07T08:41:58.781Z,60.04
2023-01-07T08:47:00.348Z,60.06
2023-01-07T08:52:01.863Z,59.59
2023-01-07T08:57:03.440Z,59.09
2023-01-07T09:02:05.099Z,58.88
2023-01-07T09:07:06.812Z,57.93
2023-01-07T09:12:10.830Z,58.13
2023-01-07T09:17:12.560Z,57.42
2023-01-07T09:22:14.197Z,57.52
2023-01-07T09:27:15.722Z,58.26
2023-01-07T09:32:17.195Z,57.86
2023-01-07T09:37:18.689Z,57.51
2023-01-07T09:42:26.010Z,56.74
2023-01-07T09:47:29.241Z,56.79
2023-01-07T09:52:38.252Z,56.33
2023-01-07T09:57:39.841Z,56.98
2023-01-07T10:02:54.400Z,56.59
2023-01-07T10:08:30.312Z,56.22
2023-01-07T10:13:43.891Z,55.69
2023-01-07T10:18:56.852Z,55.97
2023-01-07T10:24:23.596Z,55.54
2023-01-07T10:29:48.533Z,55.46
2023-01-07T10:34:52.807Z,55.21
2023-01-07T10:40:16.578Z,55.57
2023-01-07T10:45:25.168Z,56.14
2023-01-07T10:50:52.624Z,55.99
2023-01-07T10:55:59.770Z,55.49
2023-01-07T11:01:01.437Z,56.38
2023-01-07T11:06:06.977Z,55.73
2023-01-07T11:11:18.340Z,55.38
2023-01-07T11:16:25.209Z,55.78
2023-01-07T11:21:43.290Z,55.56
2023-01-07T11:26:46.531Z,54.64
2023-01-07T11:31:55.485Z,54.87
2023-01-07T11:36:56.986Z,54.23
2023-01-07T11:42:01.125Z,54.34
2023-01-07T11:47:03.209Z,54.27
2023-01-07T11:52:04.766Z,51.91
2023-01-07T11:57:20.467Z,47.15
2023-01-07T12:02:27.167Z,44.42
2023-01-07T12:07:28.800Z,43.37
2023-01-07T12:12:30.310Z,42.76
2023-01-07T12:17:34.405Z,41.66
2023-01-07T12:23:08.808Z,39.57
2023-01-07T12:28:13.365Z,38.73
2023-01-07T12:33:17.550Z,38.14
2023-01-07T12:38:25.828Z,38.91
2023-01-07T12:43:47.144Z,39.60
2023-01-07T12:48:54.485Z,40.44
2023-01-07T12:54:05.067Z,42.41
2023-01-07T12:59:46.120Z,42.36
2023-01-07T13:05:10.210Z,42.50
2023-01-07T13:10:20.814Z,42.88
2023-01-07T13:15:22.410Z,43.67
2023-01-07T13:20:33.005Z,44.42
2023-01-07T13:26:04.487Z,44.60
2023-01-07T13:31:21.219Z,44.55
2023-01-07T13:36:42.911Z,45.17
2023-01-07T13:42:05.993Z,45.01
2023-01-07T13:47:12.077Z,44.26
2023-01-07T13:52:22.770Z,45.05
2023-01-07T13:57:24.233Z,45.00
2023-01-07T14:02:49.568Z,44.30
2023-01-07T14:07:54.862Z,44.68
2023-01-07T14:13:27.447Z,44.76
2023-01-07T14:18:55.236Z,44.61
2023-01-07T14:24:35.473Z,44.67
2023-01-07T14:29:59.474Z,44.81
2023-01-07T14:35:08.240Z,45.69
2023-01-07T14:40:28.116Z,45.40
2023-01-07T14:45:41.781Z,46.31
2023-01-07T14:50:49.250Z,46.96
2023-01-07T14:56:05.806Z,46.73
2023-01-07T15:01:35.737Z,46.60
2023-01-07T15:06:38.094Z,47.28
2023-01-07T15:11:41.906Z,48.46
2023-01-07T15:16:47.518Z,49.00
2023-01-07T15:21:48.952Z,49.10
2023-01-07T15:26:58.506Z,48.98
2023-01-07T15:32:08.783Z,48.39
2023-01-07T15:37:15.153Z,48.84
2023-01-07T15:42:21.527Z,49.20
2023-01-07T15:47:32.419Z,49.29
2023-01-07T15:52:33.937Z,49.12
2023-01-07T15:57:36.327Z,50.66
2023-01-07T16:02:42.753Z,51.07
2023-01-07T16:08:01.166Z,51.20
2023-01-07T16:13:16.483Z,51.28
2023-01-07T16:18:18.024Z,51.79
2023-01-07T16:23:23.172Z,52.07
2023-01-07T16:28:49.395Z,52.24
2023-01-07T16:33:54.169Z,51.96
2023-01-07T16:38:59.004Z,52.46
2023-01-07T16:44:01.030Z,51.41
2023-01-07T16:49:11.622Z,51.67
2023-01-07T16:54:25.152Z,52.05
2023-01-07T16:59:33.375Z,52.93
2023-01-07T17:04:34.984Z,52.48
2023-01-07T17:09:39.251Z,52.84
2023-01-07T17:14:40.620Z,53.12
2023-01-07T17:19:59.662Z,53.64
2023-01-07T17:25:23.564Z,53.31
2023-01-07T17:30:31.901Z,53.20
2023-01-07T17:35:33.422Z,52.87
2023-01-07T17:40:35.184Z,53.74
2023-01-07T17:45:36.867Z,53.93
2023-01-07T17:50:38.460Z,53.52
2023-01-07T17:55:39.962Z,53.99
2023-01-07T18:00:41.514Z,54.07
2023-01-07T18:05:43.054Z,53.10
2023-01-07T18:10:45.163Z,52.30
2023-01-07T18:15:46.660Z,52.39
2023-01-07T18:20:48.173Z,52.11
2023-01-07T18:25:50.745Z,52.84
2023-01-07T18:30:52.316Z,53.68
2023-01-07T18:35:55.391Z,54.51
2023-01-07T18:40:57.210Z,54.64
2023-01-07T18:45:58.817Z,54.79
2023-01-07T18:51:00.342Z,55.52
2023-01-07T18:56:01.910Z,56.20
2023-01-07T19:01:05.325Z,57.48
2023-01-07T19:06:08.928Z,55.86
2023-01-07T19:11:13.042Z,56.83
2023-01-07T19:16:20.111Z,56.92
2023-01-07T19:21:21.701Z,57.36
2023-01-07T19:26:23.218Z,57.56
2023-01-07T19:31:24.782Z,57.04
2023-01-07T19:36:26.485Z,58.25
2023-01-07T19:41:27.976Z,57.51
2023-01-07T19:46:29.506Z,56.79
2023-01-07T19:51:32.047Z,56.02
2023-01-07T19:56:33.769Z,57.52
2023-01-07T20:01:35.334Z,57.26
2023-01-07T20:06:37.977Z,57.68
2023-01-07T20:11:40.237Z,58.46
2023-01-07T20:16:41.973Z,59.45
2023-01-07T20:21:43.523Z,58.88
2023-01-07T20:26:45.018Z,58.82
2023-01-07T20:31:46.538Z,57.36
2023-01-07T20:36:48.412Z,58.38
2023-01-07T20:41:49.923Z,58.81
2023-01-07T20:46:51.790Z,58.78
2023-01-07T20:51:53.283Z,59.29
2023-01-07T20:56:55.216Z,58.92
2023-01-07T21:01:56.973Z,58.41
2023-01-07T21:06:58.559Z,59.22
2023-01-07T21:12:00.130Z,58.52
2023-01-07T21:17:01.581Z,58.57
2023-01-07T21:22:03.206Z,58.52
2023-01-07T21:27:04.674Z,58.76
2023-01-07T21:32:06.169Z,59.25
2023-01-07T21:37:07.840Z,59.50
2023-01-07T21:42:09.370Z,58.14
2023-01-07T21:47:10.894Z,59.47
2023-01-07T21:52:12.367Z,59.49
2023-01-07T21:57:13.855Z,59.24
2023-01-07T22:02:15.381Z,58.73
2023-01-07T22:07:18.510Z,58.67
2023-01-07T22:12:19.971Z,58.99
2023-01-07T22:17:21.452Z,58.66
2023-01-07T22:22:22.946Z,58.26
2023-01-07T22:27:24.429Z,58.11
2023-01-07T22:32:25.877Z,58.85
2023-01-07T22:37:27.444Z,59.01
2023-01-07T22:42:47.986Z,59.31
2023-01-07T22:47:50.924Z,58.67
2023-01-07T22:52:52.471Z,57.96
2023-01-07T22:57:54.210Z,59.06
2023-01-07T23:02:55.743Z,58.44
2023-01-07T23:07:58.116Z,59.23
2023-01-07T23:12:59.559Z,58.36
2023-01-07T23:18:01.102Z,57.72
2023-01-07T23:23:02.602Z,58.14
2023-01-07T23:28:04.244Z,58.40
2023-01-07T23:33:05.787Z,57.13
2023-01-07T23:38:07.288Z,56.29
2023-01-07T23:43:08.771Z,54.78
2023-01-07T23:48:10.206Z,55.46
2023-01-07T23:53:11.668Z,55.96
2023-01-07T23:58:13.161Z,55.67
